sensor_id;sensor_type;location;lat;lon;timestamp;P1;durP1;ratioP1;P2;durP2;ratioP2
19816;SDS011;68323;49.394;8.434;2023-07-22T00:00:10;4.40;;;2.77;;
19816;SDS011;68323;49.394;8.434;2023-07-22T00:02:39;4.30;;;2.60;;
19816;SDS011;68323;49.394;8.434;2023-07-22T00:05:05;4.50;;;2.90;;
19816;SDS011;68323;49.394;8.434;2023-07-22T00:07:32;4.53;;;3.00;;
19816;SDS011;68323;49.394;8.434;2023-07-22T00:09:58;3.83;;;2.50;;
19816;SDS011;68323;49.394;8.434;2023-07-22T00:12:24;4.67;;;2.73;;
19816;SDS011;68323;49.394;8.434;2023-07-22T00:14:51;4.87;;;2.83;;
19816;SDS011;68323;49.394;8.434;2023-07-22T00:17:17;5.03;;;2.60;;
19816;SDS011;68323;49.394;8.434;2023-07-22T00:19:43;6.93;;;3.30;;
19816;SDS011;68323;49.394;8.434;2023-07-22T00:22:08;5.50;;;2.83;;
19816;SDS011;68323;49.394;8.434;2023-07-22T00:24:34;7.27;;;3.07;;
19816;SDS011;68323;49.394;8.434;2023-07-22T00:27:00;4.63;;;2.97;;
19816;SDS011;68323;49.394;8.434;2023-07-22T00:29:25;7.00;;;3.00;;
19816;SDS011;68323;49.394;8.434;2023-07-22T00:31:51;8.70;;;2.93;;
19816;SDS011;68323;49.394;8.434;2023-07-22T00:34:16;7.67;;;3.20;;
19816;SDS011;68323;49.394;8.434;2023-07-22T00:36:42;9.07;;;3.20;;
19816;SDS011;68323;49.394;8.434;2023-07-22T00:39:09;10.33;;;3.33;;
19816;SDS011;68323;49.394;8.434;2023-07-22T00:41:34;7.20;;;3.17;;
19816;SDS011;68323;49.394;8.434;2023-07-22T00:44:00;7.33;;;3.10;;
19816;SDS011;68323;49.394;8.434;2023-07-22T00:46:25;7.57;;;3.60;;
19816;SDS011;68323;49.394;8.434;2023-07-22T00:48:51;8.43;;;3.63;;
19816;SDS011;68323;49.394;8.434;2023-07-22T00:51:17;8.13;;;3.90;;
19816;SDS011;68323;49.394;8.434;2023-07-22T00:53:44;7.00;;;4.07;;
19816;SDS011;68323;49.394;8.434;2023-07-22T00:56:09;7.50;;;3.50;;
19816;SDS011;68323;49.394;8.434;2023-07-22T00:58:35;6.30;;;3.70;;
19816;SDS011;68323;49.394;8.434;2023-07-22T01:01:01;7.40;;;3.87;;
19816;SDS011;68323;49.394;8.434;2023-07-22T01:03:26;9.00;;;4.07;;
19816;SDS011;68323;49.394;8.434;2023-07-22T01:05:53;10.17;;;4.40;;
19816;SDS011;68323;49.394;8.434;2023-07-22T01:08:19;7.37;;;3.87;;
19816;SDS011;68323;49.394;8.434;2023-07-22T01:10:45;6.73;;;3.60;;
19816;SDS011;68323;49.394;8.434;2023-07-22T01:13:11;6.97;;;3.70;;
19816;SDS011;68323;49.394;8.434;2023-07-22T01:15:37;9.00;;;3.70;;
19816;SDS011;68323;49.394;8.434;2023-07-22T01:18:03;6.47;;;3.47;;
19816;SDS011;68323;49.394;8.434;2023-07-22T01:20:30;8.37;;;3.70;;
19816;SDS011;68323;49.394;8.434;2023-07-22T01:22:55;6.73;;;3.80;;
19816;SDS011;68323;49.394;8.434;2023-07-22T01:25:21;6.73;;;3.87;;
19816;SDS011;68323;49.394;8.434;2023-07-22T01:27:48;9.07;;;3.33;;
19816;SDS011;68323;49.394;8.434;2023-07-22T01:30:15;5.30;;;3.40;;
19816;SDS011;68323;49.394;8.434;2023-07-22T01:32:40;8.33;;;3.30;;
19816;SDS011;68323;49.394;8.434;2023-07-22T01:35:06;5.63;;;3.63;;
19816;SDS011;68323;49.394;8.434;2023-07-22T01:37:33;6.43;;;3.53;;
19816;SDS011;68323;49.394;8.434;2023-07-22T01:39:59;6.53;;;3.53;;
19816;SDS011;68323;49.394;8.434;2023-07-22T01:42:24;9.17;;;4.67;;
19816;SDS011;68323;49.394;8.434;2023-07-22T01:44:50;5.10;;;3.50;;
19816;SDS011;68323;49.394;8.434;2023-07-22T01:47:15;7.00;;;3.20;;
19816;SDS011;68323;49.394;8.434;2023-07-22T01:49:41;4.67;;;3.30;;
19816;SDS011;68323;49.394;8.434;2023-07-22T01:52:08;4.77;;;3.23;;
19816;SDS011;68323;49.394;8.434;2023-07-22T01:54:33;6.63;;;3.50;;
19816;SDS011;68323;49.394;8.434;2023-07-22T01:56:59;5.53;;;3.40;;
19816;SDS011;68323;49.394;8.434;2023-07-22T01:59:24;5.47;;;3.50;;
19816;SDS011;68323;49.394;8.434;2023-07-22T02:01:50;5.93;;;3.60;;
19816;SDS011;68323;49.394;8.434;2023-07-22T02:04:16;4.90;;;3.50;;
19816;SDS011;68323;49.394;8.434;2023-07-22T02:06:42;5.53;;;3.47;;
19816;SDS011;68323;49.394;8.434;2023-07-22T02:09:07;5.93;;;3.50;;
19816;SDS011;68323;49.394;8.434;2023-07-22T02:11:36;4.43;;;3.07;;
19816;SDS011;68323;49.394;8.434;2023-07-22T02:14:02;5.23;;;3.03;;
19816;SDS011;68323;49.394;8.434;2023-07-22T02:16:31;8.60;;;3.40;;
19816;SDS011;68323;49.394;8.434;2023-07-22T02:19:00;9.37;;;3.30;;
19816;SDS011;68323;49.394;8.434;2023-07-22T02:21:25;6.07;;;3.53;;
19816;SDS011;68323;49.394;8.434;2023-07-22T02:23:51;6.97;;;3.50;;
19816;SDS011;68323;49.394;8.434;2023-07-22T02:26:16;6.57;;;3.40;;
19816;SDS011;68323;49.394;8.434;2023-07-22T02:28:42;6.27;;;3.90;;
19816;SDS011;68323;49.394;8.434;2023-07-22T02:31:08;5.93;;;3.60;;
19816;SDS011;68323;49.394;8.434;2023-07-22T02:33:33;5.80;;;3.60;;
19816;SDS011;68323;49.394;8.434;2023-07-22T02:35:59;4.30;;;3.67;;
19816;SDS011;68323;49.394;8.434;2023-07-22T02:38:24;10.67;;;3.83;;
19816;SDS011;68323;49.394;8.434;2023-07-22T02:40:50;7.80;;;4.70;;
19816;SDS011;68323;49.394;8.434;2023-07-22T02:43:15;6.87;;;4.13;;
19816;SDS011;68323;49.394;8.434;2023-07-22T02:45:41;11.60;;;4.30;;
19816;SDS011;68323;49.394;8.434;2023-07-22T02:48:06;5.97;;;4.00;;
19816;SDS011;68323;49.394;8.434;2023-07-22T02:50:32;9.83;;;4.33;;
19816;SDS011;68323;49.394;8.434;2023-07-22T02:52:57;5.23;;;4.33;;
19816;SDS011;68323;49.394;8.434;2023-07-22T02:55:23;7.97;;;4.40;;
19816;SDS011;68323;49.394;8.434;2023-07-22T02:57:49;7.07;;;4.83;;
19816;SDS011;68323;49.394;8.434;2023-07-22T03:00:15;6.23;;;4.70;;
19816;SDS011;68323;49.394;8.434;2023-07-22T03:02:48;6.33;;;5.07;;
19816;SDS011;68323;49.394;8.434;2023-07-22T03:05:18;7.97;;;5.03;;
19816;SDS011;68323;49.394;8.434;2023-07-22T03:07:44;9.73;;;5.97;;
19816;SDS011;68323;49.394;8.434;2023-07-22T03:10:09;8.77;;;6.07;;
19816;SDS011;68323;49.394;8.434;2023-07-22T03:12:35;8.13;;;6.10;;
19816;SDS011;68323;49.394;8.434;2023-07-22T03:15:02;7.90;;;6.47;;
19816;SDS011;68323;49.394;8.434;2023-07-22T03:17:29;7.33;;;5.90;;
19816;SDS011;68323;49.394;8.434;2023-07-22T03:19:54;8.07;;;6.13;;
19816;SDS011;68323;49.394;8.434;2023-07-22T03:22:20;7.70;;;6.17;;
19816;SDS011;68323;49.394;8.434;2023-07-22T03:24:45;9.13;;;6.60;;
19816;SDS011;68323;49.394;8.434;2023-07-22T03:27:11;12.77;;;7.13;;
19816;SDS011;68323;49.394;8.434;2023-07-22T03:29:37;10.13;;;6.90;;
19816;SDS011;68323;49.394;8.434;2023-07-22T03:32:03;9.40;;;6.27;;
19816;SDS011;68323;49.394;8.434;2023-07-22T03:34:30;8.40;;;7.23;;
19816;SDS011;68323;49.394;8.434;2023-07-22T03:36:56;7.30;;;6.50;;
19816;SDS011;68323;49.394;8.434;2023-07-22T03:39:22;8.57;;;6.97;;
19816;SDS011;68323;49.394;8.434;2023-07-22T03:41:47;7.87;;;6.83;;
19816;SDS011;68323;49.394;8.434;2023-07-22T03:44:13;7.40;;;6.60;;
19816;SDS011;68323;49.394;8.434;2023-07-22T03:46:39;10.60;;;6.70;;
19816;SDS011;68323;49.394;8.434;2023-07-22T03:49:04;9.73;;;6.40;;
19816;SDS011;68323;49.394;8.434;2023-07-22T03:51:30;11.33;;;7.60;;
19816;SDS011;68323;49.394;8.434;2023-07-22T03:53:56;10.63;;;7.83;;
19816;SDS011;68323;49.394;8.434;2023-07-22T03:56:22;10.87;;;8.33;;
19816;SDS011;68323;49.394;8.434;2023-07-22T03:58:49;12.10;;;7.60;;
19816;SDS011;68323;49.394;8.434;2023-07-22T04:01:15;14.80;;;8.70;;
19816;SDS011;68323;49.394;8.434;2023-07-22T04:03:40;9.90;;;8.43;;
19816;SDS011;68323;49.394;8.434;2023-07-22T04:06:06;10.33;;;8.93;;
19816;SDS011;68323;49.394;8.434;2023-07-22T04:08:32;11.10;;;9.10;;
19816;SDS011;68323;49.394;8.434;2023-07-22T04:10:57;12.93;;;9.10;;
19816;SDS011;68323;49.394;8.434;2023-07-22T04:13:23;10.10;;;8.00;;
19816;SDS011;68323;49.394;8.434;2023-07-22T04:15:50;10.37;;;8.47;;
19816;SDS011;68323;49.394;8.434;2023-07-22T04:18:17;11.80;;;8.63;;
19816;SDS011;68323;49.394;8.434;2023-07-22T04:20:43;12.03;;;8.40;;
19816;SDS011;68323;49.394;8.434;2023-07-22T04:23:09;10.57;;;9.50;;
19816;SDS011;68323;49.394;8.434;2023-07-22T04:25:38;11.07;;;9.13;;
19816;SDS011;68323;49.394;8.434;2023-07-22T04:28:07;8.67;;;7.43;;
19816;SDS011;68323;49.394;8.434;2023-07-22T04:30:34;9.50;;;8.50;;
19816;SDS011;68323;49.394;8.434;2023-07-22T04:32:59;10.03;;;7.93;;
19816;SDS011;68323;49.394;8.434;2023-07-22T04:35:25;9.43;;;7.80;;
19816;SDS011;68323;49.394;8.434;2023-07-22T04:37:51;10.23;;;8.40;;
19816;SDS011;68323;49.394;8.434;2023-07-22T04:40:16;12.87;;;8.60;;
19816;SDS011;68323;49.394;8.434;2023-07-22T04:42:43;11.67;;;9.10;;
19816;SDS011;68323;49.394;8.434;2023-07-22T04:45:10;8.90;;;8.00;;
19816;SDS011;68323;49.394;8.434;2023-07-22T04:47:36;12.60;;;8.77;;
19816;SDS011;68323;49.394;8.434;2023-07-22T04:50:06;11.20;;;8.43;;
19816;SDS011;68323;49.394;8.434;2023-07-22T04:52:34;10.87;;;8.70;;
19816;SDS011;68323;49.394;8.434;2023-07-22T04:55:01;12.87;;;10.23;;
19816;SDS011;68323;49.394;8.434;2023-07-22T04:57:33;14.07;;;9.87;;
19816;SDS011;68323;49.394;8.434;2023-07-22T04:59:59;12.17;;;10.03;;
19816;SDS011;68323;49.394;8.434;2023-07-22T05:02:28;15.50;;;9.50;;
19816;SDS011;68323;49.394;8.434;2023-07-22T05:04:55;13.13;;;10.30;;
19816;SDS011;68323;49.394;8.434;2023-07-22T05:07:21;13.23;;;11.23;;
19816;SDS011;68323;49.394;8.434;2023-07-22T05:09:46;17.70;;;10.93;;
19816;SDS011;68323;49.394;8.434;2023-07-22T05:12:12;13.60;;;10.03;;
19816;SDS011;68323;49.394;8.434;2023-07-22T05:14:37;11.57;;;9.70;;
19816;SDS011;68323;49.394;8.434;2023-07-22T05:17:03;10.77;;;9.03;;
19816;SDS011;68323;49.394;8.434;2023-07-22T05:19:29;10.67;;;9.53;;
19816;SDS011;68323;49.394;8.434;2023-07-22T05:21:54;14.77;;;9.33;;
19816;SDS011;68323;49.394;8.434;2023-07-22T05:24:20;11.67;;;8.30;;
19816;SDS011;68323;49.394;8.434;2023-07-22T05:26:46;10.33;;;7.83;;
19816;SDS011;68323;49.394;8.434;2023-07-22T05:29:11;9.80;;;7.70;;
19816;SDS011;68323;49.394;8.434;2023-07-22T05:31:37;9.70;;;8.10;;
19816;SDS011;68323;49.394;8.434;2023-07-22T05:34:03;7.93;;;7.13;;
19816;SDS011;68323;49.394;8.434;2023-07-22T05:36:29;8.27;;;6.70;;
19816;SDS011;68323;49.394;8.434;2023-07-22T05:38:54;8.13;;;6.03;;
19816;SDS011;68323;49.394;8.434;2023-07-22T05:41:20;8.80;;;5.70;;
19816;SDS011;68323;49.394;8.434;2023-07-22T05:43:46;7.00;;;5.10;;
19816;SDS011;68323;49.394;8.434;2023-07-22T05:46:11;6.43;;;4.80;;
19816;SDS011;68323;49.394;8.434;2023-07-22T05:48:37;7.33;;;4.87;;
19816;SDS011;68323;49.394;8.434;2023-07-22T05:51:02;8.20;;;5.17;;
19816;SDS011;68323;49.394;8.434;2023-07-22T05:53:28;9.00;;;5.10;;
19816;SDS011;68323;49.394;8.434;2023-07-22T05:55:53;7.17;;;4.80;;
19816;SDS011;68323;49.394;8.434;2023-07-22T05:58:19;7.50;;;4.80;;
19816;SDS011;68323;49.394;8.434;2023-07-22T06:00:45;6.47;;;4.67;;
19816;SDS011;68323;49.394;8.434;2023-07-22T06:03:11;7.63;;;5.13;;
19816;SDS011;68323;49.394;8.434;2023-07-22T06:05:37;8.97;;;5.03;;
19816;SDS011;68323;49.394;8.434;2023-07-22T06:08:03;7.30;;;4.90;;
19816;SDS011;68323;49.394;8.434;2023-07-22T06:10:29;6.50;;;5.27;;
19816;SDS011;68323;49.394;8.434;2023-07-22T06:12:55;7.70;;;5.20;;
19816;SDS011;68323;49.394;8.434;2023-07-22T06:15:20;9.77;;;6.00;;
19816;SDS011;68323;49.394;8.434;2023-07-22T06:17:46;6.57;;;5.30;;
19816;SDS011;68323;49.394;8.434;2023-07-22T06:20:12;9.47;;;5.30;;
19816;SDS011;68323;49.394;8.434;2023-07-22T06:22:38;10.80;;;5.70;;
19816;SDS011;68323;49.394;8.434;2023-07-22T06:25:04;7.20;;;5.63;;
19816;SDS011;68323;49.394;8.434;2023-07-22T06:27:30;7.87;;;5.40;;
19816;SDS011;68323;49.394;8.434;2023-07-22T06:29:55;8.60;;;5.97;;
19816;SDS011;68323;49.394;8.434;2023-07-22T06:32:21;8.60;;;5.57;;
19816;SDS011;68323;49.394;8.434;2023-07-22T06:34:47;8.23;;;5.60;;
19816;SDS011;68323;49.394;8.434;2023-07-22T06:37:12;9.10;;;5.43;;
19816;SDS011;68323;49.394;8.434;2023-07-22T06:39:38;6.10;;;5.13;;
19816;SDS011;68323;49.394;8.434;2023-07-22T06:42:04;8.80;;;5.27;;
19816;SDS011;68323;49.394;8.434;2023-07-22T06:44:29;5.30;;;4.77;;
19816;SDS011;68323;49.394;8.434;2023-07-22T06:46:55;9.37;;;5.53;;
19816;SDS011;68323;49.394;8.434;2023-07-22T06:49:20;7.97;;;4.93;;
19816;SDS011;68323;49.394;8.434;2023-07-22T06:51:46;6.73;;;4.90;;
19816;SDS011;68323;49.394;8.434;2023-07-22T06:54:11;6.03;;;4.77;;
19816;SDS011;68323;49.394;8.434;2023-07-22T06:56:37;4.93;;;4.20;;
19816;SDS011;68323;49.394;8.434;2023-07-22T06:59:02;10.13;;;4.70;;
19816;SDS011;68323;49.394;8.434;2023-07-22T07:01:28;7.87;;;5.00;;
19816;SDS011;68323;49.394;8.434;2023-07-22T07:03:53;8.20;;;4.50;;
19816;SDS011;68323;49.394;8.434;2023-07-22T07:06:19;8.50;;;4.43;;
19816;SDS011;68323;49.394;8.434;2023-07-22T07:08:45;6.60;;;4.07;;
19816;SDS011;68323;49.394;8.434;2023-07-22T07:11:10;6.10;;;3.95;;
19816;SDS011;68323;49.394;8.434;2023-07-22T07:13:36;7.72;;;4.20;;
19816;SDS011;68323;49.394;8.434;2023-07-22T07:16:22;8.68;;;4.20;;
19816;SDS011;68323;49.394;8.434;2023-07-22T07:18:49;6.85;;;3.75;;
19816;SDS011;68323;49.394;8.434;2023-07-22T07:21:16;7.93;;;4.20;;
19816;SDS011;68323;49.394;8.434;2023-07-22T07:23:42;6.07;;;4.18;;
19816;SDS011;68323;49.394;8.434;2023-07-22T07:26:07;8.00;;;3.85;;
19816;SDS011;68323;49.394;8.434;2023-07-22T07:28:33;6.20;;;3.90;;
19816;SDS011;68323;49.394;8.434;2023-07-22T07:30:58;6.55;;;4.05;;
19816;SDS011;68323;49.394;8.434;2023-07-22T07:33:24;8.00;;;4.25;;
19816;SDS011;68323;49.394;8.434;2023-07-22T07:35:50;4.85;;;3.75;;
19816;SDS011;68323;49.394;8.434;2023-07-22T07:38:16;8.15;;;4.00;;
19816;SDS011;68323;49.394;8.434;2023-07-22T07:40:42;7.38;;;3.85;;
19816;SDS011;68323;49.394;8.434;2023-07-22T07:43:07;4.97;;;3.70;;
19816;SDS011;68323;49.394;8.434;2023-07-22T07:45:33;5.18;;;3.90;;
19816;SDS011;68323;49.394;8.434;2023-07-22T07:48:03;5.00;;;3.60;;
19816;SDS011;68323;49.394;8.434;2023-07-22T07:50:29;5.78;;;3.65;;
19816;SDS011;68323;49.394;8.434;2023-07-22T07:52:55;7.35;;;3.22;;
19816;SDS011;68323;49.394;8.434;2023-07-22T07:55:20;7.95;;;3.13;;
19816;SDS011;68323;49.394;8.434;2023-07-22T07:57:46;6.80;;;3.17;;
19816;SDS011;68323;49.394;8.434;2023-07-22T08:00:14;4.07;;;2.72;;
19816;SDS011;68323;49.394;8.434;2023-07-22T08:02:40;5.30;;;3.17;;
19816;SDS011;68323;49.394;8.434;2023-07-22T08:05:06;4.82;;;3.15;;
19816;SDS011;68323;49.394;8.434;2023-07-22T08:07:31;4.75;;;2.83;;
19816;SDS011;68323;49.394;8.434;2023-07-22T08:09:57;3.63;;;2.78;;
19816;SDS011;68323;49.394;8.434;2023-07-22T08:12:23;3.67;;;2.78;;
19816;SDS011;68323;49.394;8.434;2023-07-22T08:14:49;3.40;;;2.65;;
19816;SDS011;68323;49.394;8.434;2023-07-22T08:17:16;6.82;;;2.88;;
19816;SDS011;68323;49.394;8.434;2023-07-22T08:19:42;7.95;;;2.80;;
19816;SDS011;68323;49.394;8.434;2023-07-22T08:22:07;9.48;;;2.88;;
19816;SDS011;68323;49.394;8.434;2023-07-22T08:24:33;4.60;;;2.83;;
19816;SDS011;68323;49.394;8.434;2023-07-22T08:26:58;4.97;;;2.58;;
19816;SDS011;68323;49.394;8.434;2023-07-22T08:29:24;5.68;;;2.60;;
19816;SDS011;68323;49.394;8.434;2023-07-22T08:31:50;6.35;;;2.58;;
19816;SDS011;68323;49.394;8.434;2023-07-22T08:34:15;4.70;;;2.88;;
19816;SDS011;68323;49.394;8.434;2023-07-22T08:36:41;5.13;;;2.85;;
19816;SDS011;68323;49.394;8.434;2023-07-22T08:39:07;6.20;;;2.65;;
19816;SDS011;68323;49.394;8.434;2023-07-22T08:41:33;9.00;;;2.80;;
19816;SDS011;68323;49.394;8.434;2023-07-22T08:43:59;7.15;;;2.67;;
19816;SDS011;68323;49.394;8.434;2023-07-22T08:46:28;5.18;;;2.72;;
19816;SDS011;68323;49.394;8.434;2023-07-22T08:48:57;7.18;;;2.60;;
19816;SDS011;68323;49.394;8.434;2023-07-22T08:51:25;3.65;;;2.38;;
19816;SDS011;68323;49.394;8.434;2023-07-22T08:53:53;3.63;;;2.55;;
19816;SDS011;68323;49.394;8.434;2023-07-22T08:56:22;7.78;;;2.40;;
19816;SDS011;68323;49.394;8.434;2023-07-22T08:58:50;3.90;;;2.20;;
19816;SDS011;68323;49.394;8.434;2023-07-22T09:01:17;3.03;;;2.17;;
19816;SDS011;68323;49.394;8.434;2023-07-22T09:03:43;4.72;;;2.30;;
19816;SDS011;68323;49.394;8.434;2023-07-22T09:06:09;3.05;;;2.25;;
19816;SDS011;68323;49.394;8.434;2023-07-22T09:08:36;4.00;;;2.50;;
19816;SDS011;68323;49.394;8.434;2023-07-22T09:11:01;4.57;;;2.10;;
19816;SDS011;68323;49.394;8.434;2023-07-22T09:13:27;3.50;;;2.20;;
19816;SDS011;68323;49.394;8.434;2023-07-22T09:15:53;7.35;;;2.15;;
19816;SDS011;68323;49.394;8.434;2023-07-22T09:18:22;2.63;;;2.38;;
19816;SDS011;68323;49.394;8.434;2023-07-22T09:20:47;5.47;;;2.40;;
19816;SDS011;68323;49.394;8.434;2023-07-22T09:23:13;3.63;;;2.20;;
19816;SDS011;68323;49.394;8.434;2023-07-22T09:25:39;5.43;;;2.40;;
19816;SDS011;68323;49.394;8.434;2023-07-22T09:28:05;4.78;;;2.42;;
19816;SDS011;68323;49.394;8.434;2023-07-22T09:30:35;2.85;;;2.17;;
19816;SDS011;68323;49.394;8.434;2023-07-22T09:33:03;4.20;;;2.20;;
19816;SDS011;68323;49.394;8.434;2023-07-22T09:35:51;2.95;;;2.55;;
19816;SDS011;68323;49.394;8.434;2023-07-22T09:38:23;4.75;;;2.30;;
19816;SDS011;68323;49.394;8.434;2023-07-22T09:40:49;5.03;;;2.40;;
19816;SDS011;68323;49.394;8.434;2023-07-22T09:43:15;3.35;;;2.40;;
19816;SDS011;68323;49.394;8.434;2023-07-22T09:45:41;10.07;;;2.90;;
19816;SDS011;68323;49.394;8.434;2023-07-22T09:48:07;4.90;;;2.28;;
19816;SDS011;68323;49.394;8.434;2023-07-22T09:50:34;5.63;;;2.53;;
19816;SDS011;68323;49.394;8.434;2023-07-22T09:53:01;4.28;;;2.25;;
19816;SDS011;68323;49.394;8.434;2023-07-22T09:55:29;3.88;;;2.50;;
19816;SDS011;68323;49.394;8.434;2023-07-22T09:57:56;5.13;;;2.50;;
19816;SDS011;68323;49.394;8.434;2023-07-22T10:00:23;6.53;;;2.42;;
19816;SDS011;68323;49.394;8.434;2023-07-22T10:02:53;4.00;;;2.80;;
19816;SDS011;68323;49.394;8.434;2023-07-22T10:05:21;4.93;;;2.08;;
19816;SDS011;68323;49.394;8.434;2023-07-22T10:07:51;4.53;;;2.08;;
19816;SDS011;68323;49.394;8.434;2023-07-22T10:10:20;4.25;;;2.05;;
19816;SDS011;68323;49.394;8.434;2023-07-22T10:12:47;4.65;;;1.90;;
19816;SDS011;68323;49.394;8.434;2023-07-22T10:15:13;4.40;;;2.00;;
19816;SDS011;68323;49.394;8.434;2023-07-22T10:17:40;3.90;;;2.03;;
19816;SDS011;68323;49.394;8.434;2023-07-22T10:20:10;3.08;;;2.20;;
19816;SDS011;68323;49.394;8.434;2023-07-22T10:22:43;3.35;;;2.10;;
19816;SDS011;68323;49.394;8.434;2023-07-22T10:25:10;5.38;;;2.00;;
19816;SDS011;68323;49.394;8.434;2023-07-22T10:27:37;3.97;;;2.03;;
19816;SDS011;68323;49.394;8.434;2023-07-22T10:30:07;9.77;;;2.40;;
19816;SDS011;68323;49.394;8.434;2023-07-22T10:32:40;3.63;;;2.10;;
19816;SDS011;68323;49.394;8.434;2023-07-22T10:35:10;2.55;;;1.80;;
19816;SDS011;68323;49.394;8.434;2023-07-22T10:37:41;8.30;;;2.40;;
19816;SDS011;68323;49.394;8.434;2023-07-22T10:40:25;3.10;;;2.10;;
19816;SDS011;68323;49.394;8.434;2023-07-22T10:43:05;5.13;;;2.13;;
19816;SDS011;68323;49.394;8.434;2023-07-22T10:45:32;4.32;;;2.28;;
19816;SDS011;68323;49.394;8.434;2023-07-22T10:48:06;3.15;;;1.98;;
19816;SDS011;68323;49.394;8.434;2023-07-22T10:50:41;3.85;;;2.10;;
19816;SDS011;68323;49.394;8.434;2023-07-22T10:53:50;3.47;;;2.20;;
19816;SDS011;68323;49.394;8.434;2023-07-22T10:56:42;3.63;;;2.17;;
19816;SDS011;68323;49.394;8.434;2023-07-22T11:01:44;8.30;;;2.30;;
19816;SDS011;68323;49.394;8.434;2023-07-22T11:06:38;4.60;;;2.10;;
19816;SDS011;68323;49.394;8.434;2023-07-22T11:11:54;3.65;;;2.58;;
19816;SDS011;68323;49.394;8.434;2023-07-22T11:14:22;4.55;;;2.10;;
19816;SDS011;68323;49.394;8.434;2023-07-22T11:16:48;6.00;;;2.50;;
19816;SDS011;68323;49.394;8.434;2023-07-22T11:19:14;6.65;;;2.30;;
19816;SDS011;68323;49.394;8.434;2023-07-22T11:21:42;4.25;;;2.20;;
19816;SDS011;68323;49.394;8.434;2023-07-22T11:24:08;6.28;;;2.42;;
19816;SDS011;68323;49.394;8.434;2023-07-22T11:26:34;3.92;;;1.95;;
19816;SDS011;68323;49.394;8.434;2023-07-22T11:29:00;3.90;;;2.17;;
19816;SDS011;68323;49.394;8.434;2023-07-22T11:32:00;7.03;;;2.58;;
19816;SDS011;68323;49.394;8.434;2023-07-22T11:34:19;5.57;;;2.45;;
19816;SDS011;68323;49.394;8.434;2023-07-22T11:36:48;5.78;;;2.65;;
19816;SDS011;68323;49.394;8.434;2023-07-22T11:39:18;5.40;;;2.30;;
19816;SDS011;68323;49.394;8.434;2023-07-22T11:41:45;7.43;;;2.47;;
19816;SDS011;68323;49.394;8.434;2023-07-22T11:44:16;2.88;;;2.00;;
19816;SDS011;68323;49.394;8.434;2023-07-22T11:49:22;6.10;;;2.40;;
19816;SDS011;68323;49.394;8.434;2023-07-22T11:51:51;6.53;;;2.20;;
19816;SDS011;68323;49.394;8.434;2023-07-22T11:54:20;5.50;;;2.38;;
19816;SDS011;68323;49.394;8.434;2023-07-22T11:56:46;4.25;;;2.30;;
19816;SDS011;68323;49.394;8.434;2023-07-22T11:59:12;4.68;;;2.00;;
19816;SDS011;68323;49.394;8.434;2023-07-22T12:01:38;4.20;;;2.38;;
19816;SDS011;68323;49.394;8.434;2023-07-22T12:04:09;2.92;;;2.08;;
19816;SDS011;68323;49.394;8.434;2023-07-22T12:06:38;2.70;;;2.22;;
19816;SDS011;68323;49.394;8.434;2023-07-22T12:09:04;4.70;;;2.10;;
19816;SDS011;68323;49.394;8.434;2023-07-22T12:11:32;2.33;;;1.88;;
19816;SDS011;68323;49.394;8.434;2023-07-22T12:16:34;6.90;;;1.90;;
19816;SDS011;68323;49.394;8.434;2023-07-22T12:19:01;3.67;;;1.73;;
19816;SDS011;68323;49.394;8.434;2023-07-22T12:21:27;4.57;;;2.33;;
19816;SDS011;68323;49.394;8.434;2023-07-22T12:23:53;3.78;;;2.20;;
19816;SDS011;68323;49.394;8.434;2023-07-22T12:26:19;4.40;;;2.05;;
19816;SDS011;68323;49.394;8.434;2023-07-22T12:28:44;4.78;;;2.30;;
19816;SDS011;68323;49.394;8.434;2023-07-22T12:31:10;4.13;;;2.22;;
19816;SDS011;68323;49.394;8.434;2023-07-22T12:33:35;4.32;;;2.40;;
19816;SDS011;68323;49.394;8.434;2023-07-22T12:36:01;2.90;;;2.35;;
19816;SDS011;68323;49.394;8.434;2023-07-22T12:38:27;3.00;;;2.35;;
19816;SDS011;68323;49.394;8.434;2023-07-22T12:40:52;5.57;;;2.13;;
19816;SDS011;68323;49.394;8.434;2023-07-22T12:43:18;3.20;;;2.30;;
19816;SDS011;68323;49.394;8.434;2023-07-22T12:45:43;4.68;;;2.30;;
19816;SDS011;68323;49.394;8.434;2023-07-22T12:48:09;7.30;;;2.40;;
19816;SDS011;68323;49.394;8.434;2023-07-22T12:50:34;5.68;;;2.30;;
19816;SDS011;68323;49.394;8.434;2023-07-22T12:53:00;4.40;;;2.50;;
19816;SDS011;68323;49.394;8.434;2023-07-22T12:55:26;3.15;;;2.22;;
19816;SDS011;68323;49.394;8.434;2023-07-22T12:57:52;3.35;;;2.55;;
19816;SDS011;68323;49.394;8.434;2023-07-22T13:00:18;5.03;;;2.60;;
19816;SDS011;68323;49.394;8.434;2023-07-22T13:02:44;6.15;;;2.33;;
19816;SDS011;68323;49.394;8.434;2023-07-22T13:05:09;4.15;;;2.67;;
19816;SDS011;68323;49.394;8.434;2023-07-22T13:07:35;4.18;;;2.50;;
19816;SDS011;68323;49.394;8.434;2023-07-22T13:10:02;5.32;;;2.33;;
19816;SDS011;68323;49.394;8.434;2023-07-22T13:12:31;4.00;;;2.80;;
19816;SDS011;68323;49.394;8.434;2023-07-22T13:14:57;2.92;;;2.38;;
19816;SDS011;68323;49.394;8.434;2023-07-22T13:17:23;3.30;;;2.22;;
19816;SDS011;68323;49.394;8.434;2023-07-22T13:19:49;5.80;;;2.35;;
19816;SDS011;68323;49.394;8.434;2023-07-22T13:22:15;6.35;;;2.63;;
19816;SDS011;68323;49.394;8.434;2023-07-22T13:24:40;3.90;;;2.38;;
19816;SDS011;68323;49.394;8.434;2023-07-22T13:27:06;4.68;;;2.38;;
19816;SDS011;68323;49.394;8.434;2023-07-22T13:29:32;6.45;;;2.38;;
19816;SDS011;68323;49.394;8.434;2023-07-22T13:31:57;3.33;;;2.70;;
19816;SDS011;68323;49.394;8.434;2023-07-22T13:34:23;6.38;;;2.53;;
19816;SDS011;68323;49.394;8.434;2023-07-22T13:36:48;4.00;;;2.30;;
19816;SDS011;68323;49.394;8.434;2023-07-22T13:39:14;2.90;;;2.45;;
19816;SDS011;68323;49.394;8.434;2023-07-22T13:41:39;3.58;;;2.65;;
19816;SDS011;68323;49.394;8.434;2023-07-22T13:44:05;4.25;;;2.53;;
19816;SDS011;68323;49.394;8.434;2023-07-22T13:46:30;4.72;;;2.65;;
19816;SDS011;68323;49.394;8.434;2023-07-22T13:48:56;3.08;;;2.53;;
19816;SDS011;68323;49.394;8.434;2023-07-22T13:51:21;10.52;;;2.90;;
19816;SDS011;68323;49.394;8.434;2023-07-22T13:53:47;7.45;;;2.47;;
19816;SDS011;68323;49.394;8.434;2023-07-22T13:56:13;3.20;;;2.20;;
19816;SDS011;68323;49.394;8.434;2023-07-22T13:58:38;4.78;;;2.53;;
19816;SDS011;68323;49.394;8.434;2023-07-22T14:01:04;5.90;;;2.38;;
19816;SDS011;68323;49.394;8.434;2023-07-22T14:03:29;5.85;;;2.53;;
19816;SDS011;68323;49.394;8.434;2023-07-22T14:05:55;6.90;;;2.38;;
19816;SDS011;68323;49.394;8.434;2023-07-22T14:08:21;3.67;;;2.53;;
19816;SDS011;68323;49.394;8.434;2023-07-22T14:10:46;5.53;;;2.60;;
19816;SDS011;68323;49.394;8.434;2023-07-22T14:13:12;4.47;;;2.65;;
19816;SDS011;68323;49.394;8.434;2023-07-22T14:15:38;3.30;;;2.47;;
19816;SDS011;68323;49.394;8.434;2023-07-22T14:18:03;2.78;;;2.53;;
19816;SDS011;68323;49.394;8.434;2023-07-22T14:20:29;5.53;;;2.50;;
19816;SDS011;68323;49.394;8.434;2023-07-22T14:22:55;4.63;;;2.55;;
19816;SDS011;68323;49.394;8.434;2023-07-22T14:25:21;4.10;;;2.47;;
19816;SDS011;68323;49.394;8.434;2023-07-22T14:27:47;4.88;;;2.67;;
19816;SDS011;68323;49.394;8.434;2023-07-22T14:30:13;4.43;;;2.58;;
19816;SDS011;68323;49.394;8.434;2023-07-22T14:32:38;6.22;;;2.75;;
19816;SDS011;68323;49.394;8.434;2023-07-22T14:35:04;4.60;;;2.65;;
19816;SDS011;68323;49.394;8.434;2023-07-22T14:37:30;3.85;;;2.60;;
19816;SDS011;68323;49.394;8.434;2023-07-22T14:39:55;4.30;;;2.20;;
19816;SDS011;68323;49.394;8.434;2023-07-22T14:42:21;3.53;;;2.50;;
19816;SDS011;68323;49.394;8.434;2023-07-22T14:44:46;7.10;;;2.92;;
19816;SDS011;68323;49.394;8.434;2023-07-22T14:47:12;4.60;;;2.85;;
19816;SDS011;68323;49.394;8.434;2023-07-22T14:49:37;5.50;;;2.97;;
19816;SDS011;68323;49.394;8.434;2023-07-22T14:52:03;5.00;;;2.40;;
19816;SDS011;68323;49.394;8.434;2023-07-22T14:54:29;6.97;;;2.50;;